createdAt,value
2022-08-05T00:02:34.801Z,3.08
2022-08-05T00:06:04.837Z,2.78
2022-08-05T00:09:00.364Z,3.03
2022-08-05T00:12:03.059Z,2.97
2022-08-05T00:15:56.263Z,3.20
2022-08-05T00:18:32.037Z,2.70
2022-08-05T00:21:35.932Z,2.95
2022-08-05T00:24:38.697Z,3.13
2022-08-05T00:27:45.262Z,3.35
2022-08-05T00:30:51.930Z,3.10
2022-08-05T00:34:54.614Z,3.28
2022-08-05T00:37:18.488Z,2.97
2022-08-05T00:40:26.960Z,3.45
2022-08-05T00:43:41.588Z,2.90
2022-08-05T00:46:54.252Z,3.53
2022-08-05T00:50:06.816Z,3.33
2022-08-05T00:54:01.110Z,3.50
2022-08-05T00:56:32.235Z,2.92
2022-08-05T00:59:44.256Z,3.20
2022-08-05T01:02:47.267Z,3.40
2022-08-05T01:05:55.063Z,3.85
2022-08-05T01:08:57.530Z,3.80
2022-08-05T01:12:05.156Z,3.65
2022-08-05T01:15:35.445Z,3.50
2022-08-05T01:18:43.165Z,3.60
2022-08-05T01:22:18.901Z,4.00
2022-08-05T01:25:55.750Z,4.10
2022-08-05T01:29:04.268Z,3.78
2022-08-05T01:32:12.742Z,2.90
2022-08-05T01:35:50.989Z,3.67
2022-08-05T01:38:50.885Z,3.60
2022-08-05T01:41:55.185Z,3.60
2022-08-05T01:45:00.250Z,3.83
2022-08-05T01:48:10.433Z,3.90
2022-08-05T01:51:15.514Z,3.50
2022-08-05T01:54:25.636Z,3.92
2022-08-05T01:58:10.720Z,3.33
2022-08-05T02:00:57.579Z,3.72
2022-08-05T02:04:01.488Z,3.95
2022-08-05T02:07:04.406Z,3.53
2022-08-05T02:10:10.876Z,4.05
2022-08-05T02:13:27.762Z,3.55
2022-08-05T02:16:46.257Z,3.58
2022-08-05T02:20:01.026Z,3.67
2022-08-05T02:23:09.559Z,3.63
2022-08-05T02:26:17.234Z,4.07
2022-08-05T02:29:26.058Z,3.67
2022-08-05T02:32:50.351Z,3.78
2022-08-05T02:35:56.184Z,3.55
2022-08-05T02:39:03.827Z,3.85
2022-08-05T02:42:12.438Z,3.63
2022-08-05T02:45:52.951Z,3.65
2022-08-05T02:48:54.934Z,3.95
2022-08-05T02:52:02.892Z,4.10
2022-08-05T02:55:10.758Z,4.10
2022-08-05T02:58:17.017Z,4.68
2022-08-05T03:01:27.043Z,3.58
2022-08-05T03:04:31.748Z,4.07
2022-08-05T03:07:59.435Z,3.72
2022-08-05T03:11:53.097Z,4.03
2022-08-05T03:14:21.015Z,3.92
2022-08-05T03:17:23.874Z,4.18
2022-08-05T03:20:28.909Z,4.15
2022-08-05T03:23:32.266Z,4.38
2022-08-05T03:26:37.882Z,4.45
2022-08-05T03:29:45.325Z,4.35
2022-08-05T03:33:06.260Z,3.85
2022-08-05T03:36:12.068Z,4.63
2022-08-05T03:39:20.273Z,4.25
2022-08-05T03:42:32.093Z,4.05
2022-08-05T03:45:55.279Z,4.20
2022-08-05T03:48:58.993Z,4.60
2022-08-05T03:52:38.912Z,4.80
2022-08-05T03:56:05.238Z,4.68
2022-08-05T03:59:07.219Z,3.75
2022-08-05T04:02:14.911Z,4.70
2022-08-05T04:05:20.758Z,5.20
2022-08-05T04:08:36.129Z,4.28
2022-08-05T04:11:47.351Z,4.72
2022-08-05T04:14:53.468Z,3.95
2022-08-05T04:18:03.118Z,4.25
2022-08-05T04:21:06.957Z,4.30
2022-08-05T04:24:15.002Z,4.63
2022-08-05T04:27:33.075Z,4.38
2022-08-05T04:30:45.045Z,4.40
2022-08-05T04:34:19.047Z,4.00
2022-08-05T04:37:10.197Z,3.97
2022-08-05T04:40:14.738Z,4.65
2022-08-05T04:43:22.244Z,4.25
2022-08-05T04:46:28.423Z,4.57
2022-08-05T04:50:01.112Z,4.10
2022-08-05T04:52:53.577Z,4.35
2022-08-05T04:56:14.682Z,4.40
2022-08-05T04:59:22.931Z,3.85
2022-08-05T05:02:43.179Z,4.40
2022-08-05T05:06:38.918Z,4.30
2022-08-05T05:09:08.673Z,4.43
2022-08-05T05:12:12.811Z,4.93
2022-08-05T05:15:17.398Z,4.32
2022-08-05T05:18:38.049Z,3.95
2022-08-05T05:21:40.512Z,3.83
2022-08-05T05:24:42.967Z,4.60
2022-08-05T05:28:02.057Z,3.97
2022-08-05T05:31:05.782Z,4.40
2022-08-05T05:34:11.474Z,5.22
2022-08-05T05:37:15.164Z,4.43
2022-08-05T05:40:20.104Z,5.07
2022-08-05T05:43:56.872Z,4.72
2022-08-05T05:46:47.819Z,4.65
2022-08-05T05:49:56.684Z,4.75
2022-08-05T05:53:21.376Z,5.45
2022-08-05T05:56:31.422Z,5.45
2022-08-05T05:59:40.396Z,5.05
2022-08-05T06:02:43.655Z,5.65
2022-08-05T06:05:46.694Z,5.22
2022-08-05T06:08:56.870Z,6.13
2022-08-05T06:12:02.457Z,5.45
2022-08-05T06:15:09.398Z,5.78
2022-08-05T06:18:31.436Z,6.00
2022-08-05T06:21:36.937Z,6.45
2022-08-05T06:24:48.199Z,6.57
2022-08-05T06:28:11.645Z,5.60
2022-08-05T06:31:18.064Z,4.78
2022-08-05T06:34:24.285Z,4.13
2022-08-05T06:37:56.424Z,4.15
2022-08-05T06:40:52.722Z,3.83
2022-08-05T06:44:00.241Z,4.13
2022-08-05T06:47:04.554Z,3.80
2022-08-05T06:50:17.331Z,3.78
2022-08-05T06:53:28.009Z,3.20
2022-08-05T06:56:34.639Z,2.95
2022-08-05T06:59:38.604Z,3.22
2022-08-05T07:02:47.452Z,3.28
2022-08-05T07:05:56.469Z,3.10
2022-08-05T07:08:59.693Z,3.33
2022-08-05T07:12:07.562Z,3.13
2022-08-05T07:15:34.520Z,2.67
2022-08-05T07:18:52.262Z,2.83
2022-08-05T07:22:00.038Z,2.67
2022-08-05T07:25:22.922Z,3.30
2022-08-05T07:28:27.170Z,2.47
2022-08-05T07:31:40.967Z,2.10
2022-08-05T07:34:57.900Z,2.25
2022-08-05T07:38:01.185Z,2.20
2022-08-05T07:42:08.760Z,2.75
2022-08-05T07:44:28.313Z,2.45
2022-08-05T07:47:42.259Z,2.30
2022-08-05T07:50:46.530Z,2.10
2022-08-05T07:53:50.438Z,2.20
2022-08-05T07:57:02.036Z,2.70
2022-08-05T08:00:16.365Z,2.35
2022-08-05T08:03:18.827Z,2.30
2022-08-05T08:06:28.323Z,2.47
2022-08-05T08:09:30.830Z,2.65
2022-08-05T08:12:48.827Z,2.65
2022-08-05T08:16:34.490Z,2.63
2022-08-05T08:20:00.446Z,2.65
2022-08-05T08:22:38.625Z,2.72
2022-08-05T08:26:00.578Z,2.97
2022-08-05T08:29:21.883Z,2.60
2022-08-05T08:32:28.004Z,2.60
2022-08-05T08:35:35.208Z,2.97
2022-08-05T08:38:53.276Z,3.03
2022-08-05T08:41:59.562Z,3.00
2022-08-05T08:45:24.143Z,3.25
2022-08-05T08:49:03.102Z,3.80
2022-08-05T08:52:02.821Z,4.00
2022-08-05T08:55:13.145Z,4.90
2022-08-05T08:58:16.940Z,5.68
2022-08-05T09:01:20.148Z,4.18
2022-08-05T09:04:23.006Z,4.55
2022-08-05T09:07:39.825Z,3.40
2022-08-05T09:10:57.559Z,3.83
2022-08-05T09:14:54.798Z,3.83
2022-08-05T09:17:42.618Z,3.35
2022-08-05T09:20:47.101Z,3.85
2022-08-05T09:24:03.617Z,4.20
2022-08-05T09:27:10.718Z,3.70
2022-08-05T09:30:23.431Z,3.83
2022-08-05T09:33:35.249Z,3.47
2022-08-05T09:36:53.949Z,3.28
2022-08-05T09:39:57.013Z,3.95
2022-08-05T09:43:01.582Z,3.17
2022-08-05T09:46:08.812Z,3.60
2022-08-05T09:49:54.360Z,3.28
2022-08-05T09:52:48.367Z,4.80
2022-08-05T09:56:05.241Z,3.72
2022-08-05T09:59:17.497Z,3.63
2022-08-05T10:02:32.089Z,3.00
2022-08-05T10:05:36.014Z,3.63
2022-08-05T10:08:39.541Z,3.90
2022-08-05T10:11:46.019Z,3.45
2022-08-05T10:14:54.515Z,3.45
2022-08-05T10:18:13.277Z,3.35
2022-08-05T10:21:16.509Z,4.03
2022-08-05T10:24:19.438Z,4.47
2022-08-05T10:28:09.425Z,3.78
2022-08-05T10:33:01.487Z,3.97
2022-08-05T10:34:17.156Z,4.32
2022-08-05T10:37:19.882Z,3.78
2022-08-05T10:40:31.496Z,4.47
2022-08-05T10:43:48.529Z,4.67
2022-08-05T10:46:54.354Z,4.32
2022-08-05T10:50:20.526Z,4.60
2022-08-05T10:53:35.476Z,4.03
2022-08-05T10:56:47.174Z,4.65
2022-08-05T11:00:18.132Z,4.93
2022-08-05T11:03:24.750Z,4.10
2022-08-05T11:06:31.156Z,4.13
2022-08-05T11:09:46.691Z,4.15
2022-08-05T11:12:54.235Z,3.10
2022-08-05T11:16:22.376Z,2.80
2022-08-05T11:20:10.753Z,3.10
2022-08-05T11:23:33.063Z,2.35
2022-08-05T11:26:36.548Z,2.40
2022-08-05T11:29:41.531Z,2.03
2022-08-05T11:32:44.034Z,2.00
2022-08-05T11:36:04.449Z,2.58
2022-08-05T11:39:13.646Z,2.55
2022-08-05T11:42:18.255Z,2.55
2022-08-05T11:46:14.424Z,2.78
2022-08-05T11:48:43.731Z,2.10
2022-08-05T11:51:49.895Z,2.58
2022-08-05T11:54:54.974Z,2.50
2022-08-05T11:58:10.289Z,2.67
2022-08-05T12:01:18.995Z,2.38
2022-08-05T12:04:22.336Z,1.67
2022-08-05T12:08:08.341Z,1.58
2022-08-05T12:10:50.487Z,2.03
2022-08-05T12:13:58.718Z,2.28
2022-08-05T12:17:36.152Z,2.22
2022-08-05T12:20:38.411Z,1.75
2022-08-05T12:23:52.994Z,2.30
2022-08-05T12:26:56.700Z,2.08
2022-08-05T12:30:01.169Z,2.33
2022-08-05T12:33:07.113Z,2.17
2022-08-05T12:36:28.689Z,2.50
2022-08-05T12:39:37.620Z,2.38
2022-08-05T12:42:41.513Z,2.30
2022-08-05T12:45:52.255Z,2.42
2022-08-05T12:52:12.388Z,2.40
2022-08-05T12:55:25.618Z,2.40
2022-08-05T12:58:48.553Z,2.20
2022-08-05T13:02:07.410Z,2.22
2022-08-05T13:05:11.152Z,1.92
2022-08-05T13:08:19.213Z,2.22
2022-08-05T13:11:59.814Z,1.98
2022-08-05T13:14:59.165Z,2.25
2022-08-05T13:18:09.303Z,2.00
2022-08-05T13:21:12.438Z,1.77
2022-08-05T13:24:15.103Z,2.35
2022-08-05T13:27:41.370Z,2.55
2022-08-05T13:30:44.042Z,2.47
2022-08-05T13:34:24.219Z,2.08
2022-08-05T13:37:13.305Z,2.15
2022-08-05T13:40:36.682Z,2.42
2022-08-05T13:43:44.219Z,2.05
2022-08-05T13:47:04.583Z,2.38
2022-08-05T13:50:16.243Z,2.28
2022-08-05T13:53:19.282Z,2.58
2022-08-05T13:56:22.107Z,2.25
2022-08-05T13:59:27.537Z,2.38
2022-08-05T14:02:33.289Z,2.50
2022-08-05T14:06:04.993Z,2.85
2022-08-05T14:08:59.529Z,2.67
2022-08-05T14:12:17.496Z,2.55
2022-08-05T14:16:04.402Z,2.95
2022-08-05T14:18:44.141Z,2.95
2022-08-05T14:22:09.501Z,2.60
2022-08-05T14:25:19.419Z,2.70
2022-08-05T14:28:26.314Z,2.58
2022-08-05T14:32:03.296Z,2.78
2022-08-05T14:34:53.864Z,3.17
2022-08-05T14:37:59.173Z,2.78
2022-08-05T14:41:06.827Z,2.58
2022-08-05T14:44:20.455Z,2.83
2022-08-05T14:48:04.857Z,2.90
2022-08-05T14:50:48.992Z,2.60
2022-08-05T14:54:26.241Z,2.67
2022-08-05T14:57:15.064Z,2.92
2022-08-05T15:00:20.022Z,3.13
2022-08-05T15:03:23.897Z,2.78
2022-08-05T15:06:30.303Z,2.50
2022-08-05T15:09:52.169Z,2.78
2022-08-05T15:13:01.188Z,2.83
2022-08-05T15:16:07.412Z,3.20
2022-08-05T15:19:23.798Z,3.40
2022-08-05T15:22:28.169Z,3.05
2022-08-05T15:25:51.615Z,3.17
2022-08-05T15:28:53.883Z,3.65
2022-08-05T15:31:56.397Z,4.00
2022-08-05T15:35:00.173Z,4.18
2022-08-05T15:38:34.952Z,4.80
2022-08-05T15:41:56.142Z,4.38
2022-08-05T15:44:57.361Z,4.38
2022-08-05T15:47:59.873Z,4.65
2022-08-05T15:51:05.820Z,5.03
2022-08-05T15:54:08.642Z,5.07
2022-08-05T15:57:11.263Z,5.05
2022-08-05T16:00:17.416Z,4.95
2022-08-05T16:03:35.301Z,4.70
2022-08-05T16:06:44.852Z,4.53
2022-08-05T16:09:48.541Z,5.40
2022-08-05T16:12:51.491Z,5.88
2022-08-05T16:15:55.012Z,4.45
2022-08-05T16:18:57.777Z,4.72
2022-08-05T16:22:04.663Z,5.05
2022-08-05T16:25:09.835Z,5.10
2022-08-05T16:28:13.594Z,4.78
2022-08-05T16:31:18.263Z,5.45
2022-08-05T16:34:23.722Z,4.53
2022-08-05T16:38:02.492Z,4.10
2022-08-05T16:40:55.579Z,4.78
2022-08-05T16:44:03.240Z,3.20
2022-08-05T16:47:06.954Z,3.10
2022-08-05T16:50:29.501Z,2.90
2022-08-05T16:54:03.049Z,2.97
2022-08-05T16:56:57.842Z,2.72
2022-08-05T17:00:07.380Z,2.90
2022-08-05T17:03:19.569Z,3.00
2022-08-05T17:06:24.627Z,3.25
2022-08-05T17:09:29.539Z,2.90
2022-08-05T17:12:51.145Z,2.83
2022-08-05T17:16:02.772Z,1.58
2022-08-05T17:19:17.135Z,1.38
2022-08-05T17:22:24.586Z,1.27
2022-08-05T17:25:39.833Z,1.00
2022-08-05T17:28:42.997Z,1.27
2022-08-05T17:31:58.206Z,0.93
2022-08-05T17:35:01.578Z,0.70
2022-08-05T17:38:07.655Z,0.70
2022-08-05T17:41:22.673Z,0.65
2022-08-05T17:44:34.731Z,1.23
2022-08-05T17:47:38.246Z,1.00
2022-08-05T17:50:41.579Z,0.70
2022-08-05T17:53:44.176Z,1.10
2022-08-05T17:56:54.731Z,0.70
2022-08-05T18:00:05.541Z,0.80
2022-08-05T18:03:08.754Z,0.80
2022-08-05T18:06:15.037Z,1.02
2022-08-05T18:09:18.307Z,0.98
2022-08-05T18:12:23.988Z,0.80
2022-08-05T18:15:27.540Z,0.80
2022-08-05T18:18:39.717Z,0.93
2022-08-05T18:22:07.356Z,1.30
2022-08-05T18:25:05.672Z,0.85
2022-08-05T18:28:10.775Z,0.90
2022-08-05T18:31:13.262Z,1.00
2022-08-05T18:34:21.774Z,1.10
2022-08-05T18:37:34.481Z,1.30
2022-08-05T18:41:56.592Z,1.23
2022-08-05T18:44:07.977Z,1.20
2022-08-05T18:47:12.162Z,0.98
2022-08-05T18:50:45.145Z,0.77
2022-08-05T18:53:50.754Z,1.10
2022-08-05T18:56:53.258Z,1.13
2022-08-05T19:00:02.425Z,1.00
2022-08-05T19:03:06.726Z,1.10
2022-08-05T19:06:18.636Z,1.30
2022-08-05T19:09:24.130Z,1.30
2022-08-05T19:12:28.060Z,1.10
2022-08-05T19:15:58.167Z,0.95
2022-08-05T19:18:56.749Z,1.08
2022-08-05T19:21:59.538Z,1.38
2022-08-05T19:25:03.322Z,1.20
2022-08-05T19:28:05.875Z,1.02
2022-08-05T19:31:12.900Z,1.38
2022-08-05T19:34:16.394Z,1.10
2022-08-05T19:37:21.311Z,1.13
2022-08-05T19:40:24.999Z,1.10
2022-08-05T19:44:06.490Z,1.35
2022-08-05T19:46:51.366Z,1.10
2022-08-05T19:49:57.260Z,1.40
2022-08-05T19:53:09.677Z,1.25
2022-08-05T19:56:20.402Z,1.10
2022-08-05T19:59:55.368Z,1.40
2022-08-05T20:02:59.121Z,1.52
2022-08-05T20:06:15.774Z,1.65
2022-08-05T20:09:24.219Z,1.73
2022-08-05T20:12:28.272Z,1.63
2022-08-05T20:15:52.597Z,1.27
2022-08-05T20:18:55.338Z,1.60
2022-08-05T20:21:58.161Z,1.52
2022-08-05T20:25:00.756Z,1.52
2022-08-05T20:28:03.340Z,1.48
2022-08-05T20:31:07.467Z,1.48
2022-08-05T20:34:11.670Z,1.40
2022-08-05T20:37:19.285Z,1.60
2022-08-05T20:40:38.044Z,1.63
2022-08-05T20:43:59.850Z,1.25
2022-08-05T20:47:07.618Z,1.90
2022-08-05T20:50:12.360Z,1.60
2022-08-05T20:53:16.051Z,1.95
2022-08-05T20:56:42.112Z,1.60
2022-08-05T20:59:46.329Z,1.65
2022-08-05T21:03:08.115Z,1.73
2022-08-05T21:06:27.856Z,1.63
2022-08-05T21:09:31.151Z,1.70
2022-08-05T21:12:36.986Z,1.50
2022-08-05T21:15:41.623Z,1.70
2022-08-05T21:18:48.770Z,1.40
2022-08-05T21:21:52.677Z,1.70
2022-08-05T21:24:55.227Z,1.80
2022-08-05T21:27:57.747Z,1.58
2022-08-05T21:31:00.347Z,1.73
2022-08-05T21:34:02.870Z,1.52
2022-08-05T21:37:08.731Z,1.95
2022-08-05T21:40:13.031Z,1.90
2022-08-05T21:43:24.534Z,1.58
2022-08-05T21:46:28.689Z,1.88
2022-08-05T21:50:00.348Z,1.42
2022-08-05T21:52:59.099Z,1.65
2022-08-05T21:56:16.483Z,1.65
2022-08-05T21:59:23.904Z,1.55
2022-08-05T22:02:27.603Z,1.60
2022-08-05T22:05:30.333Z,1.63
2022-08-05T22:08:53.050Z,1.92
2022-08-05T22:11:55.558Z,1.80
2022-08-05T22:14:59.573Z,1.98
2022-08-05T22:18:02.679Z,1.70
2022-08-05T22:21:05.417Z,1.70
2022-08-05T22:24:51.853Z,1.60
2022-08-05T22:28:09.062Z,1.67
2022-08-05T22:31:14.398Z,2.08
2022-08-05T22:34:25.510Z,2.50
2022-08-05T22:37:59.292Z,2.25
2022-08-05T22:40:55.498Z,2.00
2022-08-05T22:43:59.277Z,1.88
2022-08-05T22:47:05.902Z,2.67
2022-08-05T22:50:19.514Z,2.00
2022-08-05T22:53:27.067Z,2.40
2022-08-05T22:56:39.846Z,2.60
2022-08-05T22:59:51.828Z,2.20
2022-08-05T23:02:56.694Z,2.70
2022-08-05T23:06:01.014Z,2.55
2022-08-05T23:09:27.122Z,2.50
2022-08-05T23:12:32.920Z,2.30
2022-08-05T23:15:36.458Z,2.35
2022-08-05T23:18:39.158Z,2.50
2022-08-05T23:21:48.320Z,2.00
2022-08-05T23:24:51.525Z,2.33
2022-08-05T23:28:00.249Z,2.30
2022-08-05T23:31:16.177Z,2.50
2022-08-05T23:34:24.303Z,2.13
2022-08-05T23:37:34.256Z,1.95
2022-08-05T23:44:06.297Z,2.25
2022-08-05T23:47:15.630Z,2.13
2022-08-05T23:50:20.276Z,2.00
2022-08-05T23:53:23.337Z,2.13
2022-08-05T23:56:31.066Z,1.70
